sensor_id;sensor_type;location;lat;lon;timestamp;P1;durP1;ratioP1;P2;durP2;ratioP2
51883;SDS011;37915;53.254;6.598;2023-05-23T00:01:01;26.35;;;12.63;;
51883;SDS011;37915;53.254;6.598;2023-05-23T00:03:27;28.95;;;13.57;;
51883;SDS011;37915;53.254;6.598;2023-05-23T00:05:55;26.67;;;12.23;;
51883;SDS011;37915;53.254;6.598;2023-05-23T00:08:21;23.80;;;12.32;;
51883;SDS011;37915;53.254;6.598;2023-05-23T00:10:47;28.45;;;12.80;;
51883;SDS011;37915;53.254;6.598;2023-05-23T00:13:12;27.52;;;14.13;;
51883;SDS011;37915;53.254;6.598;2023-05-23T00:15:38;27.92;;;13.13;;
51883;SDS011;37915;53.254;6.598;2023-05-23T00:18:05;28.48;;;12.73;;
51883;SDS011;37915;53.254;6.598;2023-05-23T00:20:33;30.45;;;12.90;;
51883;SDS011;37915;53.254;6.598;2023-05-23T00:23:00;28.85;;;13.93;;
51883;SDS011;37915;53.254;6.598;2023-05-23T00:25:27;30.95;;;13.05;;
51883;SDS011;37915;53.254;6.598;2023-05-23T00:27:58;23.52;;;12.40;;
51883;SDS011;37915;53.254;6.598;2023-05-23T00:30:25;23.67;;;12.52;;
51883;SDS011;37915;53.254;6.598;2023-05-23T00:32:51;27.08;;;12.75;;
51883;SDS011;37915;53.254;6.598;2023-05-23T00:35:19;27.15;;;13.70;;
51883;SDS011;37915;53.254;6.598;2023-05-23T00:37:46;24.50;;;14.23;;
51883;SDS011;37915;53.254;6.598;2023-05-23T00:40:14;28.63;;;14.50;;
51883;SDS011;37915;53.254;6.598;2023-05-23T00:42:40;20.75;;;13.55;;
51883;SDS011;37915;53.254;6.598;2023-05-23T00:45:06;22.10;;;12.95;;
51883;SDS011;37915;53.254;6.598;2023-05-23T00:47:32;18.20;;;11.40;;
51883;SDS011;37915;53.254;6.598;2023-05-23T00:49:57;24.08;;;12.20;;
51883;SDS011;37915;53.254;6.598;2023-05-23T00:52:24;21.45;;;11.95;;
51883;SDS011;37915;53.254;6.598;2023-05-23T00:54:50;21.88;;;11.27;;
51883;SDS011;37915;53.254;6.598;2023-05-23T00:57:16;18.35;;;11.25;;
51883;SDS011;37915;53.254;6.598;2023-05-23T00:59:41;17.95;;;10.57;;
51883;SDS011;37915;53.254;6.598;2023-05-23T01:02:09;18.27;;;10.15;;
51883;SDS011;37915;53.254;6.598;2023-05-23T01:04:36;13.32;;;9.43;;
51883;SDS011;37915;53.254;6.598;2023-05-23T01:07:02;20.80;;;9.95;;
51883;SDS011;37915;53.254;6.598;2023-05-23T01:09:28;15.38;;;9.30;;
51883;SDS011;37915;53.254;6.598;2023-05-23T01:14:51;15.32;;;8.18;;
51883;SDS011;37915;53.254;6.598;2023-05-23T01:17:38;13.73;;;6.97;;
51883;SDS011;37915;53.254;6.598;2023-05-23T01:21:00;17.27;;;7.38;;
51883;SDS011;37915;53.254;6.598;2023-05-23T01:31:42;15.85;;;7.70;;
51883;SDS011;37915;53.254;6.598;2023-05-23T01:34:11;18.30;;;7.90;;
51883;SDS011;37915;53.254;6.598;2023-05-23T01:36:39;19.08;;;8.55;;
51883;SDS011;37915;53.254;6.598;2023-05-23T01:39:06;23.48;;;8.55;;
51883;SDS011;37915;53.254;6.598;2023-05-23T01:41:32;26.85;;;9.00;;
51883;SDS011;37915;53.254;6.598;2023-05-23T01:43:58;24.25;;;10.05;;
51883;SDS011;37915;53.254;6.598;2023-05-23T01:46:24;35.42;;;9.00;;
51883;SDS011;37915;53.254;6.598;2023-05-23T01:48:52;26.40;;;10.07;;
51883;SDS011;37915;53.254;6.598;2023-05-23T01:51:20;33.03;;;10.07;;
51883;SDS011;37915;53.254;6.598;2023-05-23T01:53:47;25.27;;;9.68;;
51883;SDS011;37915;53.254;6.598;2023-05-23T01:56:14;28.15;;;10.35;;
51883;SDS011;37915;53.254;6.598;2023-05-23T01:58:40;22.85;;;9.15;;
51883;SDS011;37915;53.254;6.598;2023-05-23T02:01:06;21.65;;;10.18;;
51883;SDS011;37915;53.254;6.598;2023-05-23T02:03:31;24.88;;;10.05;;
51883;SDS011;37915;53.254;6.598;2023-05-23T02:05:57;27.73;;;9.95;;
51883;SDS011;37915;53.254;6.598;2023-05-23T02:08:23;21.42;;;9.10;;
51883;SDS011;37915;53.254;6.598;2023-05-23T02:10:49;21.15;;;8.90;;
51883;SDS011;37915;53.254;6.598;2023-05-23T02:13:14;21.23;;;8.38;;
51883;SDS011;37915;53.254;6.598;2023-05-23T02:15:40;19.33;;;8.77;;
51883;SDS011;37915;53.254;6.598;2023-05-23T02:18:06;20.40;;;8.18;;
51883;SDS011;37915;53.254;6.598;2023-05-23T02:20:31;21.33;;;7.38;;
51883;SDS011;37915;53.254;6.598;2023-05-23T02:22:57;20.30;;;8.27;;
51883;SDS011;37915;53.254;6.598;2023-05-23T02:25:23;19.48;;;7.60;;
51883;SDS011;37915;53.254;6.598;2023-05-23T02:27:48;21.13;;;8.00;;
51883;SDS011;37915;53.254;6.598;2023-05-23T02:30:14;15.23;;;6.70;;
51883;SDS011;37915;53.254;6.598;2023-05-23T02:32:40;19.73;;;6.88;;
51883;SDS011;37915;53.254;6.598;2023-05-23T02:35:06;19.05;;;6.65;;
51883;SDS011;37915;53.254;6.598;2023-05-23T02:37:32;17.55;;;6.88;;
51883;SDS011;37915;53.254;6.598;2023-05-23T02:39:58;24.98;;;7.38;;
51883;SDS011;37915;53.254;6.598;2023-05-23T02:42:23;21.90;;;7.90;;
51883;SDS011;37915;53.254;6.598;2023-05-23T02:44:49;19.35;;;7.40;;
51883;SDS011;37915;53.254;6.598;2023-05-23T02:47:15;29.70;;;8.45;;
51883;SDS011;37915;53.254;6.598;2023-05-23T02:49:40;23.83;;;7.72;;
51883;SDS011;37915;53.254;6.598;2023-05-23T02:52:06;25.85;;;8.25;;
51883;SDS011;37915;53.254;6.598;2023-05-23T02:54:32;19.30;;;8.32;;
51883;SDS011;37915;53.254;6.598;2023-05-23T02:56:58;22.40;;;8.18;;
51883;SDS011;37915;53.254;6.598;2023-05-23T02:59:23;26.83;;;8.65;;
51883;SDS011;37915;53.254;6.598;2023-05-23T03:01:50;28.40;;;8.52;;
51883;SDS011;37915;53.254;6.598;2023-05-23T03:04:16;21.20;;;8.35;;
51883;SDS011;37915;53.254;6.598;2023-05-23T03:06:42;23.30;;;8.98;;
51883;SDS011;37915;53.254;6.598;2023-05-23T03:09:08;25.13;;;9.43;;
51883;SDS011;37915;53.254;6.598;2023-05-23T03:11:34;22.52;;;8.43;;
51883;SDS011;37915;53.254;6.598;2023-05-23T03:14:00;21.42;;;8.20;;
51883;SDS011;37915;53.254;6.598;2023-05-23T03:16:25;20.25;;;7.20;;
51883;SDS011;37915;53.254;6.598;2023-05-23T03:18:51;21.98;;;7.70;;
51883;SDS011;37915;53.254;6.598;2023-05-23T03:21:17;19.13;;;7.75;;
51883;SDS011;37915;53.254;6.598;2023-05-23T03:23:42;16.85;;;7.32;;
51883;SDS011;37915;53.254;6.598;2023-05-23T03:26:08;16.45;;;6.85;;
51883;SDS011;37915;53.254;6.598;2023-05-23T03:28:34;26.10;;;6.90;;
51883;SDS011;37915;53.254;6.598;2023-05-23T03:31:00;16.02;;;6.40;;
51883;SDS011;37915;53.254;6.598;2023-05-23T03:33:26;20.48;;;6.55;;
51883;SDS011;37915;53.254;6.598;2023-05-23T03:35:51;20.05;;;6.45;;
51883;SDS011;37915;53.254;6.598;2023-05-23T03:38:17;20.08;;;6.15;;
51883;SDS011;37915;53.254;6.598;2023-05-23T03:40:43;15.25;;;5.65;;
51883;SDS011;37915;53.254;6.598;2023-05-23T03:43:08;18.30;;;5.80;;
51883;SDS011;37915;53.254;6.598;2023-05-23T03:45:34;20.48;;;5.95;;
51883;SDS011;37915;53.254;6.598;2023-05-23T03:48:00;25.73;;;5.63;;
51883;SDS011;37915;53.254;6.598;2023-05-23T03:50:26;20.67;;;7.28;;
51883;SDS011;37915;53.254;6.598;2023-05-23T03:52:52;15.55;;;5.53;;
51883;SDS011;37915;53.254;6.598;2023-05-23T03:55:19;15.95;;;5.90;;
51883;SDS011;37915;53.254;6.598;2023-05-23T03:57:47;17.08;;;5.57;;
51883;SDS011;37915;53.254;6.598;2023-05-23T04:00:13;12.65;;;5.18;;
51883;SDS011;37915;53.254;6.598;2023-05-23T04:02:39;17.98;;;5.28;;
51883;SDS011;37915;53.254;6.598;2023-05-23T04:05:05;16.60;;;5.95;;
51883;SDS011;37915;53.254;6.598;2023-05-23T04:07:31;11.90;;;5.00;;
51883;SDS011;37915;53.254;6.598;2023-05-23T04:10:01;20.20;;;6.35;;
51883;SDS011;37915;53.254;6.598;2023-05-23T04:12:27;13.48;;;5.28;;
51883;SDS011;37915;53.254;6.598;2023-05-23T04:14:54;15.73;;;5.57;;
51883;SDS011;37915;53.254;6.598;2023-05-23T04:17:21;16.23;;;5.53;;
51883;SDS011;37915;53.254;6.598;2023-05-23T04:19:48;15.45;;;5.00;;
51883;SDS011;37915;53.254;6.598;2023-05-23T04:22:15;18.33;;;5.20;;
51883;SDS011;37915;53.254;6.598;2023-05-23T04:24:40;15.60;;;5.10;;
51883;SDS011;37915;53.254;6.598;2023-05-23T04:27:06;18.83;;;5.72;;
51883;SDS011;37915;53.254;6.598;2023-05-23T04:29:33;19.25;;;4.95;;
51883;SDS011;37915;53.254;6.598;2023-05-23T04:32:00;17.98;;;4.45;;
51883;SDS011;37915;53.254;6.598;2023-05-23T04:34:30;17.83;;;4.97;;
51883;SDS011;37915;53.254;6.598;2023-05-23T04:36:57;13.98;;;4.47;;
51883;SDS011;37915;53.254;6.598;2023-05-23T04:39:26;12.23;;;4.10;;
51883;SDS011;37915;53.254;6.598;2023-05-23T04:41:53;16.35;;;4.63;;
51883;SDS011;37915;53.254;6.598;2023-05-23T04:44:20;20.52;;;5.18;;
51883;SDS011;37915;53.254;6.598;2023-05-23T04:46:47;19.00;;;5.85;;
51883;SDS011;37915;53.254;6.598;2023-05-23T04:49:14;20.05;;;6.60;;
51883;SDS011;37915;53.254;6.598;2023-05-23T04:51:40;17.30;;;5.97;;
51883;SDS011;37915;53.254;6.598;2023-05-23T04:54:06;25.23;;;7.22;;
51883;SDS011;37915;53.254;6.598;2023-05-23T04:56:33;22.75;;;7.40;;
51883;SDS011;37915;53.254;6.598;2023-05-23T04:58:58;20.38;;;7.18;;
51883;SDS011;37915;53.254;6.598;2023-05-23T05:01:24;18.83;;;7.45;;
51883;SDS011;37915;53.254;6.598;2023-05-23T05:03:51;18.95;;;7.78;;
51883;SDS011;37915;53.254;6.598;2023-05-23T05:06:17;19.63;;;7.25;;
51883;SDS011;37915;53.254;6.598;2023-05-23T05:08:45;17.15;;;7.10;;
51883;SDS011;37915;53.254;6.598;2023-05-23T05:11:11;20.63;;;7.05;;
51883;SDS011;37915;53.254;6.598;2023-05-23T05:13:36;16.60;;;6.75;;
51883;SDS011;37915;53.254;6.598;2023-05-23T05:16:02;17.38;;;7.57;;
51883;SDS011;37915;53.254;6.598;2023-05-23T05:18:28;16.38;;;7.03;;
51883;SDS011;37915;53.254;6.598;2023-05-23T05:20:54;18.25;;;6.95;;
51883;SDS011;37915;53.254;6.598;2023-05-23T05:23:25;21.38;;;7.05;;
51883;SDS011;37915;53.254;6.598;2023-05-23T05:25:54;15.23;;;5.68;;
51883;SDS011;37915;53.254;6.598;2023-05-23T05:28:20;16.98;;;6.63;;
51883;SDS011;37915;53.254;6.598;2023-05-23T05:30:46;15.82;;;7.30;;
51883;SDS011;37915;53.254;6.598;2023-05-23T05:33:12;14.55;;;6.07;;
51883;SDS011;37915;53.254;6.598;2023-05-23T05:35:38;18.38;;;6.03;;
51883;SDS011;37915;53.254;6.598;2023-05-23T05:38:04;19.15;;;6.90;;
51883;SDS011;37915;53.254;6.598;2023-05-23T05:40:32;15.30;;;6.72;;
51883;SDS011;37915;53.254;6.598;2023-05-23T05:42:58;17.50;;;5.45;;
51883;SDS011;37915;53.254;6.598;2023-05-23T05:45:23;17.90;;;5.72;;
51883;SDS011;37915;53.254;6.598;2023-05-23T05:47:49;15.90;;;5.28;;
51883;SDS011;37915;53.254;6.598;2023-05-23T05:50:15;21.23;;;5.85;;
51883;SDS011;37915;53.254;6.598;2023-05-23T05:52:41;12.73;;;4.53;;
51883;SDS011;37915;53.254;6.598;2023-05-23T05:55:08;13.02;;;3.92;;
51883;SDS011;37915;53.254;6.598;2023-05-23T05:57:37;14.50;;;4.03;;
51883;SDS011;37915;53.254;6.598;2023-05-23T06:00:10;9.07;;;3.92;;
51883;SDS011;37915;53.254;6.598;2023-05-23T06:02:43;9.55;;;4.18;;
51883;SDS011;37915;53.254;6.598;2023-05-23T06:05:11;15.50;;;4.68;;
51883;SDS011;37915;53.254;6.598;2023-05-23T06:07:38;14.10;;;4.57;;
51883;SDS011;37915;53.254;6.598;2023-05-23T06:10:04;11.68;;;3.90;;
51883;SDS011;37915;53.254;6.598;2023-05-23T06:12:31;9.30;;;4.40;;
51883;SDS011;37915;53.254;6.598;2023-05-23T06:14:57;14.27;;;4.20;;
51883;SDS011;37915;53.254;6.598;2023-05-23T06:17:22;14.07;;;3.95;;
51883;SDS011;37915;53.254;6.598;2023-05-23T06:19:48;13.88;;;4.95;;
51883;SDS011;37915;53.254;6.598;2023-05-23T06:22:14;18.08;;;4.47;;
51883;SDS011;37915;53.254;6.598;2023-05-23T06:24:39;15.60;;;5.35;;
51883;SDS011;37915;53.254;6.598;2023-05-23T06:27:05;17.20;;;4.70;;
51883;SDS011;37915;53.254;6.598;2023-05-23T06:29:31;18.77;;;4.88;;
51883;SDS011;37915;53.254;6.598;2023-05-23T06:31:56;14.32;;;4.32;;
51883;SDS011;37915;53.254;6.598;2023-05-23T06:34:22;14.10;;;5.07;;
51883;SDS011;37915;53.254;6.598;2023-05-23T06:36:48;15.68;;;5.18;;
51883;SDS011;37915;53.254;6.598;2023-05-23T06:39:13;17.35;;;5.18;;
51883;SDS011;37915;53.254;6.598;2023-05-23T06:41:39;20.45;;;5.55;;
51883;SDS011;37915;53.254;6.598;2023-05-23T06:44:05;17.23;;;4.50;;
51883;SDS011;37915;53.254;6.598;2023-05-23T06:46:31;18.88;;;4.97;;
51883;SDS011;37915;53.254;6.598;2023-05-23T06:48:59;23.50;;;5.38;;
51883;SDS011;37915;53.254;6.598;2023-05-23T06:51:25;17.33;;;4.55;;
51883;SDS011;37915;53.254;6.598;2023-05-23T06:53:51;19.27;;;4.40;;
51883;SDS011;37915;53.254;6.598;2023-05-23T06:56:16;21.20;;;4.60;;
51883;SDS011;37915;53.254;6.598;2023-05-23T06:58:42;15.82;;;4.25;;
51883;SDS011;37915;53.254;6.598;2023-05-23T07:01:08;21.88;;;5.55;;
51883;SDS011;37915;53.254;6.598;2023-05-23T07:03:45;13.93;;;3.97;;
51883;SDS011;37915;53.254;6.598;2023-05-23T07:06:11;17.02;;;4.68;;
51883;SDS011;37915;53.254;6.598;2023-05-23T07:08:39;17.90;;;4.20;;
51883;SDS011;37915;53.254;6.598;2023-05-23T07:11:05;21.10;;;4.78;;
51883;SDS011;37915;53.254;6.598;2023-05-23T07:13:31;19.55;;;4.57;;
51883;SDS011;37915;53.254;6.598;2023-05-23T07:15:57;14.95;;;3.92;;
51883;SDS011;37915;53.254;6.598;2023-05-23T07:18:24;13.80;;;4.53;;
51883;SDS011;37915;53.254;6.598;2023-05-23T07:20:50;13.77;;;4.32;;
51883;SDS011;37915;53.254;6.598;2023-05-23T07:23:16;21.00;;;6.10;;
51883;SDS011;37915;53.254;6.598;2023-05-23T07:25:44;17.60;;;4.35;;
51883;SDS011;37915;53.254;6.598;2023-05-23T07:28:11;21.73;;;4.50;;
51883;SDS011;37915;53.254;6.598;2023-05-23T07:30:37;21.77;;;4.50;;
51883;SDS011;37915;53.254;6.598;2023-05-23T07:33:02;16.88;;;4.35;;
51883;SDS011;37915;53.254;6.598;2023-05-23T07:35:28;21.10;;;4.40;;
51883;SDS011;37915;53.254;6.598;2023-05-23T07:37:54;15.45;;;5.53;;
51883;SDS011;37915;53.254;6.598;2023-05-23T07:40:20;14.00;;;4.30;;
51883;SDS011;37915;53.254;6.598;2023-05-23T07:42:46;23.52;;;5.65;;
51883;SDS011;37915;53.254;6.598;2023-05-23T07:45:12;20.00;;;5.13;;
51883;SDS011;37915;53.254;6.598;2023-05-23T07:47:38;13.57;;;3.95;;
51883;SDS011;37915;53.254;6.598;2023-05-23T07:50:04;15.40;;;5.30;;
51883;SDS011;37915;53.254;6.598;2023-05-23T07:52:30;17.02;;;4.78;;
51883;SDS011;37915;53.254;6.598;2023-05-23T07:54:57;21.15;;;4.82;;
51883;SDS011;37915;53.254;6.598;2023-05-23T07:57:23;17.60;;;3.80;;
51883;SDS011;37915;53.254;6.598;2023-05-23T07:59:49;15.05;;;4.18;;
51883;SDS011;37915;53.254;6.598;2023-05-23T08:02:16;19.83;;;4.28;;
51883;SDS011;37915;53.254;6.598;2023-05-23T08:04:42;18.27;;;4.80;;
51883;SDS011;37915;53.254;6.598;2023-05-23T08:07:09;16.45;;;3.55;;
51883;SDS011;37915;53.254;6.598;2023-05-23T08:09:35;15.38;;;3.83;;
51883;SDS011;37915;53.254;6.598;2023-05-23T08:12:02;16.77;;;4.45;;
51883;SDS011;37915;53.254;6.598;2023-05-23T08:14:27;18.55;;;5.13;;
51883;SDS011;37915;53.254;6.598;2023-05-23T08:16:53;19.42;;;5.05;;
51883;SDS011;37915;53.254;6.598;2023-05-23T08:19:19;16.92;;;5.47;;
51883;SDS011;37915;53.254;6.598;2023-05-23T08:21:45;13.55;;;4.80;;
51883;SDS011;37915;53.254;6.598;2023-05-23T08:24:11;16.42;;;4.03;;
51883;SDS011;37915;53.254;6.598;2023-05-23T08:26:37;17.25;;;4.28;;
51883;SDS011;37915;53.254;6.598;2023-05-23T08:29:03;11.70;;;3.38;;
51883;SDS011;37915;53.254;6.598;2023-05-23T08:31:29;16.73;;;4.35;;
51883;SDS011;37915;53.254;6.598;2023-05-23T08:33:56;13.23;;;4.07;;
51883;SDS011;37915;53.254;6.598;2023-05-23T08:36:23;11.32;;;3.75;;
51883;SDS011;37915;53.254;6.598;2023-05-23T08:38:49;13.65;;;4.18;;
51883;SDS011;37915;53.254;6.598;2023-05-23T08:41:19;17.48;;;4.18;;
51883;SDS011;37915;53.254;6.598;2023-05-23T08:43:51;15.30;;;3.95;;
51883;SDS011;37915;53.254;6.598;2023-05-23T08:46:19;17.30;;;4.22;;
51883;SDS011;37915;53.254;6.598;2023-05-23T08:48:55;15.55;;;4.47;;
51883;SDS011;37915;53.254;6.598;2023-05-23T08:51:26;10.80;;;3.42;;
51883;SDS011;37915;53.254;6.598;2023-05-23T08:53:52;14.95;;;3.90;;
51883;SDS011;37915;53.254;6.598;2023-05-23T08:56:22;14.50;;;3.83;;
51883;SDS011;37915;53.254;6.598;2023-05-23T08:58:50;13.38;;;4.00;;
51883;SDS011;37915;53.254;6.598;2023-05-23T09:01:19;15.65;;;4.07;;
51883;SDS011;37915;53.254;6.598;2023-05-23T09:03:50;16.67;;;4.78;;
51883;SDS011;37915;53.254;6.598;2023-05-23T09:06:16;12.98;;;4.15;;
51883;SDS011;37915;53.254;6.598;2023-05-23T09:08:45;16.13;;;4.10;;
51883;SDS011;37915;53.254;6.598;2023-05-23T09:11:11;12.60;;;3.78;;
51883;SDS011;37915;53.254;6.598;2023-05-23T09:13:38;21.55;;;4.18;;
51883;SDS011;37915;53.254;6.598;2023-05-23T09:16:05;14.32;;;3.92;;
51883;SDS011;37915;53.254;6.598;2023-05-23T09:18:40;16.73;;;3.83;;
51883;SDS011;37915;53.254;6.598;2023-05-23T09:21:10;12.60;;;3.42;;
51883;SDS011;37915;53.254;6.598;2023-05-23T09:23:37;13.52;;;3.90;;
51883;SDS011;37915;53.254;6.598;2023-05-23T09:26:05;15.20;;;4.10;;
51883;SDS011;37915;53.254;6.598;2023-05-23T09:28:42;15.45;;;4.30;;
51883;SDS011;37915;53.254;6.598;2023-05-23T09:31:09;19.58;;;3.78;;
51883;SDS011;37915;53.254;6.598;2023-05-23T09:33:39;13.25;;;3.38;;
51883;SDS011;37915;53.254;6.598;2023-05-23T09:36:15;12.90;;;3.92;;
51883;SDS011;37915;53.254;6.598;2023-05-23T09:38:44;12.23;;;3.70;;
51883;SDS011;37915;53.254;6.598;2023-05-23T09:41:13;15.65;;;4.03;;
51883;SDS011;37915;53.254;6.598;2023-05-23T09:43:39;17.45;;;5.22;;
51883;SDS011;37915;53.254;6.598;2023-05-23T09:46:29;13.15;;;3.35;;
51883;SDS011;37915;53.254;6.598;2023-05-23T09:49:31;23.42;;;5.07;;
51883;SDS011;37915;53.254;6.598;2023-05-23T09:52:00;14.07;;;3.45;;
51883;SDS011;37915;53.254;6.598;2023-05-23T09:54:31;11.27;;;3.38;;
51883;SDS011;37915;53.254;6.598;2023-05-23T10:00:07;14.73;;;3.75;;
51883;SDS011;37915;53.254;6.598;2023-05-23T10:05:47;14.20;;;3.78;;
51883;SDS011;37915;53.254;6.598;2023-05-23T10:08:20;12.25;;;3.47;;
51883;SDS011;37915;53.254;6.598;2023-05-23T10:13:27;16.80;;;3.88;;
51883;SDS011;37915;53.254;6.598;2023-05-23T10:16:26;13.73;;;3.30;;
51883;SDS011;37915;53.254;6.598;2023-05-23T10:19:06;17.20;;;3.92;;
51883;SDS011;37915;53.254;6.598;2023-05-23T10:21:51;13.85;;;3.25;;
51883;SDS011;37915;53.254;6.598;2023-05-23T10:24:40;9.73;;;2.92;;
51883;SDS011;37915;53.254;6.598;2023-05-23T10:27:15;12.55;;;2.83;;
51883;SDS011;37915;53.254;6.598;2023-05-23T10:29:45;12.77;;;2.97;;
51883;SDS011;37915;53.254;6.598;2023-05-23T10:32:18;14.02;;;3.67;;
51883;SDS011;37915;53.254;6.598;2023-05-23T10:34:54;11.60;;;3.47;;
51883;SDS011;37915;53.254;6.598;2023-05-23T10:48:19;14.50;;;3.42;;
51883;SDS011;37915;53.254;6.598;2023-05-23T10:51:36;16.85;;;3.42;;
51883;SDS011;37915;53.254;6.598;2023-05-23T10:56:34;16.75;;;3.90;;
51883;SDS011;37915;53.254;6.598;2023-05-23T10:59:01;13.63;;;3.83;;
51883;SDS011;37915;53.254;6.598;2023-05-23T11:01:30;14.70;;;3.67;;
51883;SDS011;37915;53.254;6.598;2023-05-23T11:03:56;13.20;;;3.47;;
51883;SDS011;37915;53.254;6.598;2023-05-23T11:06:27;15.77;;;3.30;;
51883;SDS011;37915;53.254;6.598;2023-05-23T11:09:12;16.00;;;3.88;;
51883;SDS011;37915;53.254;6.598;2023-05-23T11:16:56;15.43;;;4.55;;
51883;SDS011;37915;53.254;6.598;2023-05-23T11:19:23;11.30;;;3.20;;
51883;SDS011;37915;53.254;6.598;2023-05-23T11:21:58;17.58;;;4.07;;
51883;SDS011;37915;53.254;6.598;2023-05-23T11:27:15;16.45;;;4.28;;
51883;SDS011;37915;53.254;6.598;2023-05-23T11:29:45;15.20;;;3.70;;
51883;SDS011;37915;53.254;6.598;2023-05-23T11:32:22;14.10;;;4.20;;
51883;SDS011;37915;53.254;6.598;2023-05-23T11:34:48;15.98;;;4.15;;
51883;SDS011;37915;53.254;6.598;2023-05-23T11:37:14;15.27;;;4.45;;
51883;SDS011;37915;53.254;6.598;2023-05-23T11:39:41;15.35;;;3.90;;
51883;SDS011;37915;53.254;6.598;2023-05-23T11:42:07;12.07;;;4.00;;
51883;SDS011;37915;53.254;6.598;2023-05-23T11:44:33;15.43;;;3.08;;
51883;SDS011;37915;53.254;6.598;2023-05-23T11:47:05;13.75;;;3.15;;
51883;SDS011;37915;53.254;6.598;2023-05-23T11:49:33;9.60;;;3.40;;
51883;SDS011;37915;53.254;6.598;2023-05-23T11:52:01;17.33;;;3.38;;
51883;SDS011;37915;53.254;6.598;2023-05-23T11:54:27;11.50;;;3.17;;
51883;SDS011;37915;53.254;6.598;2023-05-23T11:56:53;16.02;;;3.53;;
51883;SDS011;37915;53.254;6.598;2023-05-23T11:59:20;11.18;;;3.65;;
51883;SDS011;37915;53.254;6.598;2023-05-23T12:01:47;13.63;;;3.90;;
51883;SDS011;37915;53.254;6.598;2023-05-23T12:04:13;13.10;;;3.78;;
51883;SDS011;37915;53.254;6.598;2023-05-23T12:06:39;11.93;;;2.88;;
51883;SDS011;37915;53.254;6.598;2023-05-23T12:09:06;10.57;;;3.15;;
51883;SDS011;37915;53.254;6.598;2023-05-23T12:11:35;10.35;;;3.25;;
51883;SDS011;37915;53.254;6.598;2023-05-23T12:14:01;13.65;;;3.30;;
51883;SDS011;37915;53.254;6.598;2023-05-23T12:16:31;9.82;;;3.03;;
51883;SDS011;37915;53.254;6.598;2023-05-23T12:18:58;11.18;;;2.92;;
51883;SDS011;37915;53.254;6.598;2023-05-23T12:21:25;12.40;;;3.13;;
51883;SDS011;37915;53.254;6.598;2023-05-23T12:23:53;12.93;;;3.20;;
51883;SDS011;37915;53.254;6.598;2023-05-23T12:26:23;13.15;;;3.65;;
51883;SDS011;37915;53.254;6.598;2023-05-23T12:28:50;13.38;;;3.38;;
51883;SDS011;37915;53.254;6.598;2023-05-23T12:31:20;18.90;;;4.60;;
51883;SDS011;37915;53.254;6.598;2023-05-23T12:33:47;11.20;;;3.80;;
51883;SDS011;37915;53.254;6.598;2023-05-23T12:36:23;11.63;;;2.90;;
51883;SDS011;37915;53.254;6.598;2023-05-23T12:39:02;12.63;;;3.10;;
51883;SDS011;37915;53.254;6.598;2023-05-23T12:41:31;11.25;;;3.20;;
51883;SDS011;37915;53.254;6.598;2023-05-23T12:44:01;11.88;;;2.90;;
51883;SDS011;37915;53.254;6.598;2023-05-23T12:50:35;13.90;;;3.35;;
51883;SDS011;37915;53.254;6.598;2023-05-23T12:53:03;10.52;;;3.08;;
51883;SDS011;37915;53.254;6.598;2023-05-23T12:55:29;11.93;;;2.63;;
51883;SDS011;37915;53.254;6.598;2023-05-23T12:57:57;10.45;;;3.05;;
51883;SDS011;37915;53.254;6.598;2023-05-23T13:00:28;9.93;;;2.80;;
51883;SDS011;37915;53.254;6.598;2023-05-23T13:03:02;11.52;;;2.55;;
51883;SDS011;37915;53.254;6.598;2023-05-23T13:05:30;14.27;;;3.33;;
51883;SDS011;37915;53.254;6.598;2023-05-23T13:07:58;13.10;;;2.88;;
51883;SDS011;37915;53.254;6.598;2023-05-23T13:10:30;9.68;;;2.58;;
51883;SDS011;37915;53.254;6.598;2023-05-23T13:13:00;14.50;;;3.50;;
51883;SDS011;37915;53.254;6.598;2023-05-23T13:15:29;12.07;;;2.53;;
51883;SDS011;37915;53.254;6.598;2023-05-23T13:17:58;7.18;;;2.70;;
51883;SDS011;37915;53.254;6.598;2023-05-23T13:20:24;12.20;;;3.15;;
51883;SDS011;37915;53.254;6.598;2023-05-23T13:22:54;11.50;;;2.97;;
51883;SDS011;37915;53.254;6.598;2023-05-23T13:25:21;11.50;;;3.38;;
51883;SDS011;37915;53.254;6.598;2023-05-23T13:27:47;10.88;;;2.75;;
51883;SDS011;37915;53.254;6.598;2023-05-23T13:30:13;12.48;;;3.08;;
51883;SDS011;37915;53.254;6.598;2023-05-23T13:32:39;8.65;;;2.97;;
51883;SDS011;37915;53.254;6.598;2023-05-23T13:35:05;9.38;;;2.75;;
51883;SDS011;37915;53.254;6.598;2023-05-23T13:37:32;14.45;;;3.60;;
51883;SDS011;37915;53.254;6.598;2023-05-23T13:40:00;14.73;;;3.60;;
51883;SDS011;37915;53.254;6.598;2023-05-23T13:42:27;16.52;;;3.45;;
51883;SDS011;37915;53.254;6.598;2023-05-23T13:44:53;9.77;;;3.05;;
51883;SDS011;37915;53.254;6.598;2023-05-23T13:47:19;16.02;;;3.53;;
51883;SDS011;37915;53.254;6.598;2023-05-23T13:49:45;12.73;;;3.10;;
51883;SDS011;37915;53.254;6.598;2023-05-23T13:52:11;13.10;;;3.45;;
51883;SDS011;37915;53.254;6.598;2023-05-23T13:54:38;12.55;;;3.33;;
51883;SDS011;37915;53.254;6.598;2023-05-23T13:57:04;13.88;;;3.25;;
51883;SDS011;37915;53.254;6.598;2023-05-23T13:59:30;10.73;;;2.90;;
51883;SDS011;37915;53.254;6.598;2023-05-23T14:01:56;12.57;;;3.15;;
51883;SDS011;37915;53.254;6.598;2023-05-23T14:04:23;12.70;;;2.83;;
51883;SDS011;37915;53.254;6.598;2023-05-23T14:06:49;7.95;;;2.47;;
51883;SDS011;37915;53.254;6.598;2023-05-23T14:09:15;9.70;;;2.80;;
51883;SDS011;37915;53.254;6.598;2023-05-23T14:11:42;11.32;;;2.78;;
51883;SDS011;37915;53.254;6.598;2023-05-23T14:14:08;7.43;;;2.33;;
51883;SDS011;37915;53.254;6.598;2023-05-23T14:16:34;7.53;;;3.05;;
51883;SDS011;37915;53.254;6.598;2023-05-23T14:19:00;10.60;;;2.80;;
51883;SDS011;37915;53.254;6.598;2023-05-23T14:21:26;8.10;;;2.50;;
51883;SDS011;37915;53.254;6.598;2023-05-23T14:23:53;11.50;;;2.92;;
51883;SDS011;37915;53.254;6.598;2023-05-23T14:26:19;15.43;;;3.75;;
51883;SDS011;37915;53.254;6.598;2023-05-23T14:28:46;14.88;;;3.83;;
51883;SDS011;37915;53.254;6.598;2023-05-23T14:31:12;13.77;;;3.50;;
51883;SDS011;37915;53.254;6.598;2023-05-23T14:33:38;11.10;;;3.58;;
51883;SDS011;37915;53.254;6.598;2023-05-23T14:36:04;12.75;;;3.30;;
51883;SDS011;37915;53.254;6.598;2023-05-23T14:38:30;9.48;;;2.80;;
51883;SDS011;37915;53.254;6.598;2023-05-23T14:40:56;14.73;;;2.75;;
51883;SDS011;37915;53.254;6.598;2023-05-23T14:43:24;10.48;;;3.00;;
51883;SDS011;37915;53.254;6.598;2023-05-23T14:45:50;10.02;;;2.33;;
51883;SDS011;37915;53.254;6.598;2023-05-23T14:48:16;15.25;;;3.20;;
51883;SDS011;37915;53.254;6.598;2023-05-23T14:50:42;10.35;;;3.13;;
51883;SDS011;37915;53.254;6.598;2023-05-23T14:53:08;16.45;;;3.63;;
51883;SDS011;37915;53.254;6.598;2023-05-23T14:55:35;10.07;;;2.60;;
51883;SDS011;37915;53.254;6.598;2023-05-23T14:58:01;13.27;;;3.70;;
51883;SDS011;37915;53.254;6.598;2023-05-23T15:00:27;15.77;;;3.15;;
51883;SDS011;37915;53.254;6.598;2023-05-23T15:02:53;9.07;;;2.70;;
51883;SDS011;37915;53.254;6.598;2023-05-23T15:05:20;11.52;;;2.55;;
51883;SDS011;37915;53.254;6.598;2023-05-23T15:07:46;10.23;;;2.83;;
51883;SDS011;37915;53.254;6.598;2023-05-23T15:10:12;9.95;;;3.28;;
51883;SDS011;37915;53.254;6.598;2023-05-23T15:12:37;14.13;;;2.95;;
51883;SDS011;37915;53.254;6.598;2023-05-23T15:15:03;9.70;;;3.17;;
51883;SDS011;37915;53.254;6.598;2023-05-23T15:17:30;10.88;;;2.85;;
51883;SDS011;37915;53.254;6.598;2023-05-23T15:19:57;11.27;;;3.10;;
51883;SDS011;37915;53.254;6.598;2023-05-23T15:22:23;13.82;;;3.05;;